createdAt,value
2024-01-04T00:00:19.649Z,10.9
2024-01-04T00:01:19.647Z,12.3
2024-01-04T00:02:19.644Z,8.2
2024-01-04T00:03:19.770Z,6.4
2024-01-04T00:04:19.685Z,9.6
2024-01-04T00:05:19.705Z,7.5
2024-01-04T00:06:19.764Z,5.3
2024-01-04T00:07:19.651Z,6.5
2024-01-04T00:08:19.672Z,7.5
2024-01-04T00:09:19.682Z,6.4
2024-01-04T00:10:19.694Z,5.8
2024-01-04T00:11:19.662Z,5.1
2024-01-04T00:12:19.684Z,13.0
2024-01-04T00:13:19.664Z,4.9
2024-01-04T00:14:19.626Z,5.0
2024-01-04T00:15:19.712Z,7.6
2024-01-04T00:16:19.653Z,5.8
2024-01-04T00:17:19.701Z,6.4
2024-01-04T00:18:19.932Z,14.4
2024-01-04T00:19:19.982Z,9.0
2024-01-04T00:20:19.603Z,13.0
2024-01-04T00:21:19.611Z,7.6
2024-01-04T00:22:19.633Z,7.0
2024-01-04T00:23:19.643Z,15.7
2024-01-04T00:24:19.685Z,8.8
2024-01-04T00:25:19.648Z,6.1
2024-01-04T00:26:19.623Z,8.2
2024-01-04T00:27:19.612Z,5.9
2024-01-04T00:28:19.637Z,5.3
2024-01-04T00:29:19.666Z,6.1
2024-01-04T00:30:19.885Z,5.9
2024-01-04T00:31:19.712Z,5.9
2024-01-04T00:32:19.681Z,5.6
2024-01-04T00:33:19.788Z,7.2
2024-01-04T00:34:19.842Z,8.2
2024-01-04T00:35:19.664Z,7.5
2024-01-04T00:36:19.708Z,7.4
2024-01-04T00:37:21.935Z,6.2
2024-01-04T00:38:19.592Z,4.9
2024-01-04T00:39:19.606Z,6.1
2024-01-04T00:40:19.689Z,6.5
2024-01-04T00:41:19.749Z,6.0
2024-01-04T00:42:19.611Z,7.7
2024-01-04T00:43:19.606Z,4.1
2024-01-04T00:44:19.610Z,7.2
2024-01-04T00:45:19.569Z,6.9
2024-01-04T00:46:19.623Z,4.7
2024-01-04T00:47:19.641Z,5.9
2024-01-04T00:48:19.675Z,6.2
2024-01-04T00:49:19.694Z,5.1
2024-01-04T00:50:19.607Z,4.7
2024-01-04T00:51:19.579Z,5.5
2024-01-04T00:52:19.548Z,5.9
2024-01-04T00:53:19.571Z,9.9
2024-01-04T00:54:19.570Z,6.1
2024-01-04T00:55:19.608Z,5.5
2024-01-04T00:56:19.578Z,9.3
2024-01-04T00:57:19.546Z,5.9
2024-01-04T00:58:19.603Z,6.1
2024-01-04T00:59:19.596Z,6.5
2024-01-04T01:00:19.580Z,5.5
2024-01-04T01:01:19.630Z,6.8
2024-01-04T01:02:20.258Z,5.1
2024-01-04T01:03:20.068Z,5.5
2024-01-04T01:04:19.538Z,8.0
2024-01-04T01:05:19.585Z,8.0
2024-01-04T01:06:19.690Z,6.5
2024-01-04T01:07:19.634Z,8.3
2024-01-04T01:08:19.613Z,8.8
2024-01-04T01:09:19.649Z,7.3
2024-01-04T01:10:19.610Z,5.8
2024-01-04T01:11:19.585Z,20.5
2024-01-04T01:12:19.601Z,8.4
2024-01-04T01:13:19.572Z,5.6
2024-01-04T01:14:19.542Z,8.5
2024-01-04T01:15:19.760Z,9.7
2024-01-04T01:16:19.560Z,11.7
2024-01-04T01:17:19.556Z,11.9
2024-01-04T01:18:19.744Z,7.0
2024-01-04T01:19:19.666Z,9.8
2024-01-04T01:20:19.565Z,7.3
2024-01-04T01:21:19.539Z,5.8
2024-01-04T01:22:19.578Z,8.4
2024-01-04T01:23:19.587Z,4.6
2024-01-04T01:24:19.766Z,8.2
2024-01-04T01:25:19.565Z,6.4
2024-01-04T01:26:19.678Z,6.3
2024-01-04T01:27:19.572Z,5.4
2024-01-04T01:28:19.537Z,5.9
2024-01-04T01:29:19.496Z,6.3
2024-01-04T01:30:19.739Z,5.0
2024-01-04T01:31:19.532Z,7.7
2024-01-04T01:32:19.542Z,5.7
2024-01-04T01:33:19.694Z,5.8
2024-01-04T01:34:19.581Z,8.1
2024-01-04T01:35:19.524Z,8.2
2024-01-04T01:36:19.568Z,5.1
2024-01-04T01:37:19.783Z,6.0
2024-01-04T01:38:19.494Z,6.3
2024-01-04T01:39:19.577Z,6.0
2024-01-04T01:40:19.540Z,5.8
2024-01-04T01:41:19.528Z,6.4
2024-01-04T01:42:19.552Z,6.6
2024-01-04T01:43:19.536Z,5.0
2024-01-04T01:44:19.476Z,6.3
2024-01-04T01:45:19.595Z,5.0
2024-01-04T01:46:19.573Z,5.4
2024-01-04T01:47:19.486Z,4.3
2024-01-04T01:48:19.928Z,5.8
2024-01-04T01:49:19.822Z,6.7
2024-01-04T01:50:19.492Z,6.2
2024-01-04T01:51:19.503Z,5.3
2024-01-04T01:52:19.521Z,5.8
2024-01-04T01:53:19.484Z,4.7
2024-01-04T01:54:19.477Z,4.9
2024-01-04T01:55:19.551Z,6.5
2024-01-04T01:56:19.489Z,4.6
2024-01-04T01:57:19.505Z,5.5
2024-01-04T01:58:19.484Z,5.8
2024-01-04T01:59:24.439Z,6.0
2024-01-04T02:00:19.486Z,4.6
2024-01-04T02:01:19.625Z,4.3
2024-01-04T02:02:19.447Z,4.6
2024-01-04T02:03:19.584Z,6.4
2024-01-04T02:04:19.505Z,5.1
2024-01-04T02:05:19.563Z,4.8
2024-01-04T02:06:19.561Z,5.3
2024-01-04T02:07:19.490Z,5.2
2024-01-04T02:08:19.505Z,6.3
2024-01-04T02:09:19.459Z,6.8
2024-01-04T02:10:19.576Z,6.1
2024-01-04T02:11:19.485Z,3.9
2024-01-04T02:12:19.488Z,4.3
2024-01-04T02:13:19.454Z,6.0
2024-01-04T02:14:19.453Z,5.3
2024-01-04T02:15:19.544Z,5.0
2024-01-04T02:16:19.450Z,5.5
2024-01-04T02:17:19.458Z,4.4
2024-01-04T02:18:19.674Z,4.4
2024-01-04T02:19:19.775Z,5.1
2024-01-04T02:20:19.465Z,4.2
2024-01-04T02:21:19.582Z,3.8
2024-01-04T02:22:19.479Z,6.3
2024-01-04T02:23:19.462Z,5.1
2024-01-04T02:24:19.463Z,5.9
2024-01-04T02:25:19.430Z,3.6
2024-01-04T02:26:19.466Z,4.5
2024-01-04T02:27:19.398Z,5.4
2024-01-04T02:28:19.449Z,4.7
2024-01-04T02:29:19.426Z,3.9
2024-01-04T02:30:19.647Z,3.2
2024-01-04T02:31:19.428Z,2.7
2024-01-04T02:32:19.590Z,4.3
2024-01-04T02:33:19.653Z,3.6
2024-01-04T02:34:19.648Z,4.3
2024-01-04T02:35:19.589Z,4.3
2024-01-04T02:36:19.503Z,3.3
2024-01-04T02:37:19.456Z,5.8
2024-01-04T02:38:19.417Z,3.9
2024-01-04T02:39:19.408Z,2.9
2024-01-04T02:40:19.393Z,5.8
2024-01-04T02:41:19.456Z,3.6
2024-01-04T02:42:19.429Z,3.2
2024-01-04T02:43:19.396Z,6.2
2024-01-04T02:44:19.421Z,3.3
2024-01-04T02:45:19.489Z,4.5
2024-01-04T02:46:19.401Z,4.8
2024-01-04T02:47:19.420Z,2.9
2024-01-04T02:48:19.621Z,3.3
2024-01-04T02:49:19.522Z,3.6
2024-01-04T02:50:19.430Z,3.5
2024-01-04T02:51:19.428Z,3.3
2024-01-04T02:52:19.449Z,2.9
2024-01-04T02:53:19.424Z,3.9
2024-01-04T02:54:19.512Z,3.6
2024-01-04T02:55:19.391Z,3.8
2024-01-04T02:56:19.407Z,3.1
2024-01-04T02:57:19.408Z,2.5
2024-01-04T02:58:19.422Z,3.3
2024-01-04T02:59:19.407Z,3.7
2024-01-04T03:00:19.492Z,3.0
2024-01-04T03:01:19.385Z,5.2
2024-01-04T03:02:19.434Z,2.8
2024-01-04T03:03:19.505Z,3.2
2024-01-04T03:04:19.416Z,3.2
2024-01-04T03:05:19.697Z,4.2
2024-01-04T03:06:19.434Z,3.4
2024-01-04T03:07:19.430Z,3.5
2024-01-04T03:08:19.411Z,2.6
2024-01-04T03:09:19.471Z,2.9
2024-01-04T03:10:19.379Z,2.6
2024-01-04T03:11:19.404Z,6.6
2024-01-04T03:12:19.429Z,3.1
2024-01-04T03:13:19.416Z,3.6
2024-01-04T03:14:19.422Z,3.1
2024-01-04T03:15:19.400Z,3.7
2024-01-04T03:16:19.541Z,4.2
2024-01-04T03:17:19.415Z,3.3
2024-01-04T03:18:19.523Z,2.8
2024-01-04T03:19:19.549Z,3.9
2024-01-04T03:20:19.362Z,5.4
2024-01-04T03:21:19.382Z,3.0
2024-01-04T03:22:19.416Z,3.4
2024-01-04T03:23:19.377Z,4.9
2024-01-04T03:24:19.490Z,2.6
2024-01-04T03:25:19.414Z,4.1
2024-01-04T03:26:19.426Z,3.6
2024-01-04T03:27:19.698Z,4.0
2024-01-04T03:28:19.399Z,5.3
2024-01-04T03:29:19.565Z,4.1
2024-01-04T03:30:19.633Z,3.8
2024-01-04T03:31:19.383Z,4.2
2024-01-04T03:32:19.424Z,5.5
2024-01-04T03:33:19.448Z,5.0
2024-01-04T03:34:19.598Z,3.9
2024-01-04T03:35:19.462Z,5.2
2024-01-04T03:36:19.374Z,5.3
2024-01-04T03:37:19.396Z,6.4
2024-01-04T03:38:19.717Z,5.2
2024-01-04T03:39:19.859Z,4.9
2024-01-04T03:40:19.335Z,3.8
2024-01-04T03:41:19.427Z,6.1
2024-01-04T03:42:19.405Z,7.2
2024-01-04T03:43:19.417Z,3.6
2024-01-04T03:44:19.400Z,4.6
2024-01-04T03:45:19.475Z,4.2
2024-01-04T03:46:19.319Z,5.0
2024-01-04T03:47:19.357Z,5.1
2024-01-04T03:48:19.450Z,5.7
2024-01-04T03:49:19.523Z,4.3
2024-01-04T03:50:19.376Z,5.3
2024-01-04T03:51:19.386Z,4.2
2024-01-04T03:52:19.396Z,5.2
2024-01-04T03:53:19.376Z,7.5
2024-01-04T03:54:19.436Z,5.0
2024-01-04T03:55:19.420Z,4.9
2024-01-04T03:56:19.363Z,5.0
2024-01-04T03:57:19.351Z,7.1
2024-01-04T03:58:19.319Z,4.8
2024-01-04T03:59:19.425Z,5.4
2024-01-04T04:00:19.510Z,5.7
2024-01-04T04:01:19.294Z,5.5
2024-01-04T04:02:19.305Z,4.1
2024-01-04T04:03:19.318Z,6.6
2024-01-04T04:04:19.414Z,4.0
2024-01-04T04:05:19.268Z,4.8
2024-01-04T04:06:19.325Z,4.6
2024-01-04T04:07:19.271Z,5.1
2024-01-04T04:08:19.321Z,7.4
2024-01-04T04:09:19.442Z,4.2
2024-01-04T04:10:19.289Z,7.1
2024-01-04T04:11:19.430Z,5.5
2024-01-04T04:12:19.261Z,5.4
2024-01-04T04:13:19.283Z,12.9
2024-01-04T04:14:19.406Z,9.1
2024-01-04T04:15:19.310Z,6.0
2024-01-04T04:16:19.300Z,13.9
2024-01-04T04:17:19.243Z,7.4
2024-01-04T04:18:19.472Z,5.3
2024-01-04T04:19:19.441Z,4.6
2024-01-04T04:20:19.232Z,6.3
2024-01-04T04:21:19.455Z,6.0
2024-01-04T04:22:19.420Z,5.3
2024-01-04T04:23:19.225Z,5.4
2024-01-04T04:24:19.270Z,6.5
2024-01-04T04:25:19.225Z,5.2
2024-01-04T04:26:20.233Z,5.5
2024-01-04T04:27:19.265Z,5.4
2024-01-04T04:28:19.210Z,5.3
2024-01-04T04:29:19.614Z,6.6
2024-01-04T04:30:19.298Z,8.4
2024-01-04T04:31:19.381Z,6.6
2024-01-04T04:32:19.241Z,6.9
2024-01-04T04:33:19.549Z,9.5
2024-01-04T04:34:19.394Z,6.2
2024-01-04T04:35:19.268Z,6.2
2024-01-04T04:36:19.283Z,7.7
2024-01-04T04:37:19.199Z,7.5
2024-01-04T04:38:19.213Z,8.0
2024-01-04T04:39:19.395Z,7.2
2024-01-04T04:40:19.233Z,8.0
2024-01-04T04:41:19.233Z,7.2
2024-01-04T04:42:19.262Z,10.4
2024-01-04T04:43:19.249Z,6.2
2024-01-04T04:44:19.403Z,7.1
2024-01-04T04:45:19.456Z,6.6
2024-01-04T04:46:19.204Z,5.3
2024-01-04T04:47:19.261Z,5.3
2024-01-04T04:48:19.365Z,6.7
2024-01-04T04:49:19.434Z,6.5
2024-01-04T04:50:19.196Z,4.8
2024-01-04T04:51:19.252Z,6.3
2024-01-04T04:52:19.213Z,5.8
2024-01-04T04:53:19.201Z,9.1
2024-01-04T04:54:19.407Z,6.4
2024-01-04T04:55:19.225Z,4.6
2024-01-04T04:56:19.260Z,6.3
2024-01-04T04:57:19.374Z,10.1
2024-01-04T04:58:19.195Z,83.7
2024-01-04T04:59:19.291Z,30.2
2024-01-04T05:00:19.280Z,11.9
2024-01-04T05:01:19.297Z,7.4
2024-01-04T05:02:19.248Z,5.7
2024-01-04T05:03:19.274Z,4.5
2024-01-04T05:04:19.375Z,6.2
2024-01-04T05:05:19.226Z,5.9
2024-01-04T05:06:19.347Z,4.1
2024-01-04T05:07:19.240Z,7.7
2024-01-04T05:08:19.280Z,5.9
2024-01-04T05:09:19.462Z,6.1
2024-01-04T05:10:19.188Z,6.9
2024-01-04T05:11:19.224Z,4.7
2024-01-04T05:12:20.464Z,4.4
2024-01-04T05:13:19.179Z,4.6
2024-01-04T05:14:19.255Z,6.9
2024-01-04T05:15:19.220Z,5.7
2024-01-04T05:16:19.178Z,5.7
2024-01-04T05:17:19.166Z,3.7
2024-01-04T05:18:19.534Z,5.7
2024-01-04T05:19:19.583Z,5.0
2024-01-04T05:20:19.189Z,6.2
2024-01-04T05:21:19.275Z,7.4
2024-01-04T05:22:19.163Z,6.0
2024-01-04T05:23:19.181Z,7.2
2024-01-04T05:24:19.312Z,6.0
2024-01-04T05:25:19.191Z,4.5
2024-01-04T05:26:19.159Z,6.1
2024-01-04T05:27:19.230Z,6.1
2024-01-04T05:28:19.133Z,5.6
2024-01-04T05:29:19.215Z,5.4
2024-01-04T05:30:19.387Z,5.8
2024-01-04T05:31:19.295Z,8.7
2024-01-04T05:32:19.173Z,4.6
2024-01-04T05:33:19.278Z,5.1
2024-01-04T05:34:19.383Z,5.1
2024-01-04T05:35:19.171Z,4.8
2024-01-04T05:36:19.184Z,3.3
2024-01-04T05:37:19.171Z,5.1
2024-01-04T05:38:19.144Z,4.6
2024-01-04T05:39:19.183Z,13.4
2024-01-04T05:40:19.190Z,9.6
2024-01-04T05:41:19.912Z,29.9
2024-01-04T05:42:19.929Z,127.6
2024-01-04T05:43:19.836Z,254.0
2024-01-04T05:44:19.185Z,126.5
2024-01-04T05:45:19.264Z,78.7
2024-01-04T05:46:19.180Z,53.3
2024-01-04T05:47:19.121Z,29.3
2024-01-04T05:48:19.298Z,27.1
2024-01-04T05:49:19.273Z,15.8
2024-01-04T05:50:19.123Z,17.1
2024-01-04T05:51:19.208Z,23.4
2024-01-04T05:52:19.160Z,34.0
2024-01-04T05:53:19.123Z,36.5
2024-01-04T05:54:19.417Z,23.3
2024-01-04T05:55:19.107Z,27.2
2024-01-04T05:56:19.091Z,44.6
2024-01-04T05:57:19.404Z,32.6
2024-01-04T05:58:19.088Z,24.1
2024-01-04T05:59:19.068Z,53.0
2024-01-04T06:00:20.011Z,68.2
2024-01-04T06:01:19.126Z,124.7
2024-01-04T06:02:19.114Z,73.6
2024-01-04T06:03:19.200Z,48.2
2024-01-04T06:04:19.126Z,39.6
2024-01-04T06:05:19.103Z,40.1
2024-01-04T06:06:19.148Z,29.0
2024-01-04T06:07:19.070Z,47.6
2024-01-04T06:08:19.080Z,30.1
2024-01-04T06:09:19.241Z,22.2
2024-01-04T06:10:19.086Z,27.3
2024-01-04T06:11:19.317Z,24.3
2024-01-04T06:12:19.135Z,24.2
2024-01-04T06:13:19.135Z,31.8
2024-01-04T06:14:19.074Z,27.4
2024-01-04T06:15:19.263Z,22.0
2024-01-04T06:16:19.061Z,24.4
2024-01-04T06:17:19.218Z,13.4
2024-01-04T06:18:19.202Z,25.6
2024-01-04T06:19:19.404Z,25.4
2024-01-04T06:20:19.099Z,25.0
2024-01-04T06:21:19.203Z,28.8
2024-01-04T06:22:19.178Z,23.3
2024-01-04T06:23:19.083Z,18.1
2024-01-04T06:24:19.177Z,26.4
2024-01-04T06:25:19.091Z,19.3
2024-01-04T06:26:19.104Z,19.6
2024-01-04T06:27:19.172Z,22.7
2024-01-04T06:28:19.082Z,35.2
2024-01-04T06:29:19.097Z,17.0
2024-01-04T06:30:22.084Z,16.7
2024-01-04T06:31:19.102Z,20.7
2024-01-04T06:32:19.080Z,13.9
2024-01-04T06:33:19.385Z,16.5
2024-01-04T06:34:19.190Z,18.7
2024-01-04T06:35:19.034Z,18.8
2024-01-04T06:36:19.115Z,16.7
2024-01-04T06:37:19.052Z,14.2
2024-01-04T06:38:19.031Z,12.5
2024-01-04T06:39:19.128Z,13.8
2024-01-04T06:40:19.007Z,15.7
2024-01-04T06:41:19.010Z,13.8
2024-01-04T06:42:19.084Z,21.6
2024-01-04T06:43:19.044Z,24.3
2024-01-04T06:44:19.887Z,23.2
2024-01-04T06:45:19.063Z,35.3
2024-01-04T06:46:19.058Z,26.1
2024-01-04T06:47:19.002Z,25.2
2024-01-04T06:48:19.155Z,93.9
2024-01-04T06:49:19.194Z,82.1
2024-01-04T06:50:19.828Z,42.5
2024-01-04T06:51:19.110Z,55.0
2024-01-04T06:52:19.047Z,31.4
2024-01-04T06:53:19.157Z,47.0
2024-01-04T06:54:20.014Z,42.5
2024-01-04T06:55:19.061Z,113.7
2024-01-04T06:56:19.028Z,35.0
2024-01-04T06:57:19.109Z,60.7
2024-01-04T06:58:19.048Z,35.3
2024-01-04T06:59:19.017Z,23.3
2024-01-04T07:00:19.165Z,25.6
2024-01-04T07:01:19.233Z,28.6
2024-01-04T07:02:19.035Z,29.9
2024-01-04T07:03:19.071Z,27.0
2024-01-04T07:04:19.070Z,27.6
2024-01-04T07:05:19.095Z,25.3
2024-01-04T07:06:19.069Z,23.4
2024-01-04T07:07:19.063Z,14.0
2024-01-04T07:08:18.999Z,14.8
2024-01-04T07:09:19.213Z,17.4
2024-01-04T07:10:19.012Z,41.0
2024-01-04T07:11:19.056Z,33.5
2024-01-04T07:12:19.086Z,26.7
2024-01-04T07:13:18.996Z,18.8
2024-01-04T07:14:19.003Z,17.2
2024-01-04T07:15:19.045Z,12.7
2024-01-04T07:16:19.091Z,13.6
2024-01-04T07:17:19.003Z,9.5
2024-01-04T07:18:19.190Z,10.4
2024-01-04T07:19:19.057Z,12.5
2024-01-04T07:20:20.980Z,15.1
2024-01-04T07:21:19.262Z,13.4
2024-01-04T07:22:19.049Z,11.6
2024-01-04T07:23:18.997Z,10.4
2024-01-04T07:24:19.029Z,14.6
2024-01-04T07:25:18.970Z,13.7
2024-01-04T07:26:18.954Z,9.1
2024-01-04T07:27:19.207Z,10.9
2024-01-04T07:28:19.038Z,32.2
2024-01-04T07:29:19.000Z,14.8
2024-01-04T07:30:19.093Z,12.3
2024-01-04T07:31:19.215Z,14.3
2024-01-04T07:32:18.980Z,11.7
2024-01-04T07:33:19.165Z,12.7
2024-01-04T07:34:19.071Z,14.6
2024-01-04T07:35:19.084Z,11.4
2024-01-04T07:36:19.119Z,14.5
2024-01-04T07:37:18.940Z,15.4
2024-01-04T07:38:19.119Z,14.0
2024-01-04T07:39:19.034Z,15.3
2024-01-04T07:40:19.020Z,13.5
2024-01-04T07:41:19.058Z,15.3
2024-01-04T07:42:19.078Z,13.1
2024-01-04T07:43:18.922Z,12.3
2024-01-04T07:44:19.023Z,14.1
2024-01-04T07:45:18.970Z,16.0
2024-01-04T07:46:18.983Z,13.0
2024-01-04T07:47:18.944Z,14.0
2024-01-04T07:48:19.115Z,15.3
2024-01-04T07:49:19.303Z,12.9
2024-01-04T07:50:18.941Z,14.9
2024-01-04T07:51:19.042Z,13.7
2024-01-04T07:52:18.947Z,15.2
2024-01-04T07:53:18.926Z,15.6
2024-01-04T07:54:19.021Z,21.0
2024-01-04T07:55:18.992Z,34.3
2024-01-04T07:56:18.961Z,28.3
2024-01-04T07:57:19.074Z,21.0
2024-01-04T07:58:18.949Z,20.5
2024-01-04T07:59:18.981Z,19.0
2024-01-04T08:00:19.182Z,17.6
2024-01-04T08:01:19.054Z,16.5
2024-01-04T08:02:18.918Z,18.8
2024-01-04T08:03:18.999Z,18.3
2024-01-04T08:04:19.028Z,22.0
2024-01-04T08:05:18.972Z,16.8
2024-01-04T08:06:19.022Z,18.9
2024-01-04T08:07:18.957Z,20.6
2024-01-04T08:08:18.980Z,19.9
2024-01-04T08:09:18.959Z,22.4
2024-01-04T08:10:18.970Z,23.4
2024-01-04T08:11:18.937Z,20.0
2024-01-04T08:12:18.936Z,18.7
2024-01-04T08:13:18.942Z,21.1
2024-01-04T08:14:18.922Z,17.5
2024-01-04T08:15:18.933Z,19.9
2024-01-04T08:16:18.959Z,20.5
2024-01-04T08:17:18.957Z,16.9
2024-01-04T08:18:19.204Z,31.0
2024-01-04T08:19:19.424Z,19.9
2024-01-04T08:20:19.041Z,18.4
2024-01-04T08:21:19.002Z,21.8
2024-01-04T08:22:19.526Z,18.8
2024-01-04T08:23:18.960Z,26.5
2024-01-04T08:24:19.026Z,20.5
2024-01-04T08:25:19.114Z,23.8
2024-01-04T08:26:18.878Z,20.4
2024-01-04T08:27:18.885Z,20.7
2024-01-04T08:28:19.165Z,20.6
2024-01-04T08:29:19.796Z,19.6
2024-01-04T08:30:19.215Z,20.5
2024-01-04T08:31:18.963Z,19.3
2024-01-04T08:32:18.937Z,24.3
2024-01-04T08:33:19.211Z,20.7
2024-01-04T08:34:19.090Z,24.8
2024-01-04T08:35:18.903Z,31.2
2024-01-04T08:36:18.984Z,28.6
2024-01-04T08:37:18.884Z,18.8
2024-01-04T08:38:18.967Z,16.5
2024-01-04T08:39:18.964Z,17.2
2024-01-04T08:40:18.918Z,25.5
2024-01-04T08:41:18.926Z,17.6
2024-01-04T08:42:20.874Z,17.8
2024-01-04T08:43:18.941Z,20.9
2024-01-04T08:44:19.084Z,15.4
2024-01-04T08:45:19.006Z,17.5
2024-01-04T08:46:18.914Z,16.8
2024-01-04T08:47:18.868Z,15.5
2024-01-04T08:48:19.174Z,19.8
2024-01-04T08:49:19.100Z,15.3
2024-01-04T08:50:19.065Z,17.6
2024-01-04T08:51:19.047Z,22.1
2024-01-04T08:52:18.885Z,16.9
2024-01-04T08:53:18.884Z,19.3
2024-01-04T08:54:18.995Z,20.3
2024-01-04T08:55:19.014Z,20.2
2024-01-04T08:56:18.894Z,28.1
2024-01-04T08:57:18.999Z,20.8
2024-01-04T08:58:18.905Z,27.7
2024-01-04T08:59:18.871Z,22.4
2024-01-04T09:00:18.918Z,21.1
2024-01-04T09:01:18.947Z,19.7
2024-01-04T09:02:18.880Z,17.7
2024-01-04T09:03:19.000Z,17.0
2024-01-04T09:04:18.905Z,19.0
2024-01-04T09:05:19.025Z,20.2
2024-01-04T09:06:19.075Z,20.0
2024-01-04T09:07:18.949Z,16.8
2024-01-04T09:08:18.835Z,18.1
2024-01-04T09:09:19.061Z,15.3
2024-01-04T09:10:18.882Z,18.4
2024-01-04T09:11:18.867Z,17.0
2024-01-04T09:12:18.915Z,15.3
2024-01-04T09:13:18.872Z,14.2
2024-01-04T09:14:18.892Z,15.6
2024-01-04T09:15:18.935Z,18.1
2024-01-04T09:16:18.841Z,16.3
2024-01-04T09:17:19.002Z,19.4
2024-01-04T09:18:19.207Z,17.5
2024-01-04T09:19:19.039Z,19.3
2024-01-04T09:20:18.887Z,17.4
2024-01-04T09:21:18.976Z,18.7
2024-01-04T09:22:18.916Z,15.5
2024-01-04T09:23:18.838Z,18.8
2024-01-04T09:24:18.879Z,17.7
2024-01-04T09:25:18.932Z,16.5
2024-01-04T09:26:18.884Z,17.7
2024-01-04T09:27:19.120Z,14.9
2024-01-04T09:28:19.003Z,15.3
2024-01-04T09:29:18.816Z,17.2
2024-01-04T09:30:18.861Z,14.5
2024-01-04T09:31:19.027Z,14.8
2024-01-04T09:32:18.825Z,15.6
2024-01-04T09:33:19.041Z,15.0
2024-01-04T09:34:19.092Z,13.2
2024-01-04T09:35:18.942Z,14.3
2024-01-04T09:36:19.068Z,13.2
2024-01-04T09:37:18.811Z,15.3
2024-01-04T09:38:18.789Z,14.2
2024-01-04T09:39:19.513Z,13.7
2024-01-04T09:40:18.902Z,18.3
2024-01-04T09:41:18.863Z,19.8
2024-01-04T09:42:18.829Z,18.3
2024-01-04T09:43:18.912Z,25.4
2024-01-04T09:44:18.931Z,17.4
2024-01-04T09:45:18.858Z,13.2
2024-01-04T09:46:18.886Z,12.1
2024-01-04T09:47:18.809Z,19.6
2024-01-04T09:48:27.945Z,14.3
2024-01-04T09:49:21.420Z,11.1
2024-01-04T09:50:19.012Z,12.4
2024-01-04T09:51:18.892Z,11.3
2024-01-04T09:52:18.960Z,13.1
2024-01-04T09:53:18.814Z,13.8
2024-01-04T09:54:19.225Z,9.8
2024-01-04T09:55:18.794Z,11.5
2024-01-04T09:56:18.821Z,12.6
2024-01-04T09:57:19.035Z,11.6
2024-01-04T09:58:18.806Z,12.5
2024-01-04T09:59:18.786Z,15.2
2024-01-04T10:00:19.327Z,16.2
2024-01-04T10:01:19.180Z,14.6
2024-01-04T10:02:19.099Z,13.5
2024-01-04T10:03:18.982Z,13.1
2024-01-04T10:04:19.011Z,16.6
2024-01-04T10:05:19.562Z,14.7
2024-01-04T10:06:19.012Z,14.4
2024-01-04T10:07:18.828Z,10.4
2024-01-04T10:08:18.754Z,10.4
2024-01-04T10:09:19.044Z,10.8
2024-01-04T10:10:18.811Z,13.7
2024-01-04T10:11:18.830Z,10.4
2024-01-04T10:12:18.807Z,10.7
2024-01-04T10:13:18.800Z,10.5
2024-01-04T10:14:18.918Z,8.9
2024-01-04T10:15:19.182Z,9.5
2024-01-04T10:16:18.867Z,8.3
2024-01-04T10:17:18.717Z,6.5
2024-01-04T10:18:19.074Z,10.7
2024-01-04T10:19:18.947Z,6.8
2024-01-04T10:20:18.772Z,7.6
2024-01-04T10:21:19.230Z,6.8
2024-01-04T10:22:18.702Z,7.1
2024-01-04T10:23:19.150Z,6.3
2024-01-04T10:24:18.765Z,6.9
2024-01-04T10:25:18.786Z,6.6
2024-01-04T10:26:18.907Z,8.2
2024-01-04T10:27:19.054Z,6.4
2024-01-04T10:28:19.800Z,6.1
2024-01-04T10:29:18.787Z,7.2
2024-01-04T10:30:19.047Z,6.4
2024-01-04T10:31:18.782Z,7.3
2024-01-04T10:32:18.929Z,5.4
2024-01-04T10:33:19.219Z,7.7
2024-01-04T10:34:19.488Z,5.4
2024-01-04T10:35:19.017Z,5.2
2024-01-04T10:36:18.964Z,6.8
2024-01-04T10:37:19.372Z,9.3
2024-01-04T10:38:19.088Z,12.0
2024-01-04T10:39:19.010Z,12.4
2024-01-04T10:40:18.977Z,13.2
2024-01-04T10:41:19.040Z,9.9
2024-01-04T10:42:18.916Z,9.9
2024-01-04T10:43:18.795Z,8.1
2024-01-04T10:44:18.715Z,7.8
2024-01-04T10:45:19.155Z,10.3
2024-01-04T10:46:18.892Z,11.8
2024-01-04T10:47:19.077Z,12.4
2024-01-04T10:48:20.266Z,22.4
2024-01-04T10:49:19.165Z,124.9
2024-01-04T10:50:19.053Z,49.6
2024-01-04T10:51:19.161Z,30.0
2024-01-04T10:52:18.776Z,24.2
2024-01-04T10:53:19.190Z,17.2
2024-01-04T10:54:18.763Z,16.6
2024-01-04T10:55:19.062Z,17.9
2024-01-04T10:56:19.033Z,21.9
2024-01-04T10:57:18.823Z,90.0
2024-01-04T10:58:18.760Z,41.4
2024-01-04T10:59:19.066Z,53.5
2024-01-04T11:00:19.140Z,61.0
2024-01-04T11:01:18.870Z,32.8
2024-01-04T11:02:18.911Z,36.9
2024-01-04T11:03:19.315Z,38.3
2024-01-04T11:04:19.119Z,24.8
2024-01-04T11:05:18.968Z,32.9
2024-01-04T11:06:18.822Z,21.4
2024-01-04T11:07:18.744Z,22.4
2024-01-04T11:08:18.842Z,17.4
2024-01-04T11:09:18.805Z,19.4
2024-01-04T11:10:18.734Z,18.6
2024-01-04T11:11:18.753Z,19.9
2024-01-04T11:12:19.074Z,17.5
2024-01-04T11:13:18.735Z,16.0
2024-01-04T11:14:18.769Z,16.3
2024-01-04T11:15:19.116Z,22.2
2024-01-04T11:16:18.770Z,26.3
2024-01-04T11:17:18.700Z,22.9
2024-01-04T11:18:19.108Z,20.6
2024-01-04T11:19:20.743Z,16.1
2024-01-04T11:20:19.037Z,38.8
2024-01-04T11:21:21.864Z,18.3
2024-01-04T11:22:19.610Z,13.9
2024-01-04T11:23:18.669Z,20.2
2024-01-04T11:24:18.702Z,20.2
2024-01-04T11:25:18.890Z,20.0
2024-01-04T11:26:19.410Z,18.1
2024-01-04T11:27:19.029Z,19.5
2024-01-04T11:28:29.175Z,27.1
2024-01-04T11:29:18.760Z,38.1
2024-01-04T11:30:18.864Z,27.2
2024-01-04T11:31:18.806Z,22.4
2024-01-04T11:32:19.093Z,27.2
2024-01-04T11:33:18.905Z,22.0
2024-01-04T11:34:19.053Z,26.9
2024-01-04T11:35:19.049Z,23.5
2024-01-04T11:36:19.533Z,25.5
2024-01-04T11:37:18.997Z,15.7
2024-01-04T11:38:18.789Z,17.5
2024-01-04T11:39:18.683Z,14.6
2024-01-04T11:40:18.705Z,13.7
2024-01-04T11:41:18.709Z,13.7
2024-01-04T11:42:18.677Z,15.9
2024-01-04T11:43:18.593Z,13.4
2024-01-04T11:44:18.819Z,10.6
2024-01-04T11:45:19.055Z,11.1
2024-01-04T11:46:19.001Z,15.4
2024-01-04T11:47:19.024Z,16.6
2024-01-04T11:48:19.165Z,12.6
2024-01-04T11:49:18.871Z,12.9
2024-01-04T11:50:21.432Z,9.4
2024-01-04T11:51:19.091Z,11.9
2024-01-04T11:52:18.877Z,11.7
2024-01-04T11:53:18.931Z,12.9
2024-01-04T11:54:19.258Z,11.4
2024-01-04T11:55:18.691Z,8.9
2024-01-04T11:56:18.696Z,11.2
2024-01-04T11:57:18.776Z,10.9
2024-01-04T11:58:18.901Z,13.2
2024-01-04T11:59:19.576Z,12.2
2024-01-04T12:00:19.008Z,8.3
2024-01-04T12:01:18.797Z,9.1
2024-01-04T12:02:18.669Z,10.6
2024-01-04T12:03:18.898Z,9.4
2024-01-04T12:04:19.233Z,6.6
2024-01-04T12:05:18.966Z,4.9
2024-01-04T12:06:18.700Z,7.6
2024-01-04T12:07:18.783Z,20.1
2024-01-04T12:08:18.682Z,17.4
2024-01-04T12:09:19.752Z,14.2
2024-01-04T12:10:18.715Z,22.8
2024-01-04T12:11:19.217Z,12.1
2024-01-04T12:12:18.675Z,10.3
2024-01-04T12:13:19.316Z,9.7
2024-01-04T12:14:18.674Z,10.9
2024-01-04T12:15:18.792Z,14.1
2024-01-04T12:16:18.936Z,14.2
2024-01-04T12:17:18.670Z,16.8
2024-01-04T12:18:19.615Z,19.6
2024-01-04T12:19:18.998Z,12.8
2024-01-04T12:20:18.767Z,22.0
2024-01-04T12:21:19.284Z,15.3
2024-01-04T12:22:18.684Z,21.7
2024-01-04T12:23:18.625Z,18.3
2024-01-04T12:24:18.761Z,16.9
2024-01-04T12:25:21.657Z,17.5
2024-01-04T12:26:18.918Z,18.8
2024-01-04T12:27:19.094Z,28.6
2024-01-04T12:28:20.499Z,25.9
2024-01-04T12:29:20.747Z,120.4
2024-01-04T12:30:19.759Z,123.5
2024-01-04T12:31:20.437Z,109.1
2024-01-04T12:32:19.919Z,138.0
2024-01-04T12:33:18.766Z,151.8
2024-01-04T12:34:18.765Z,98.3
2024-01-04T12:35:19.686Z,95.6
2024-01-04T12:36:24.218Z,180.3
2024-01-04T12:37:21.686Z,153.7
2024-01-04T12:38:19.659Z,222.2
2024-01-04T12:39:19.526Z,325.3
2024-01-04T12:40:19.950Z,321.5
2024-01-04T12:41:20.030Z,301.6
2024-01-04T12:42:19.729Z,238.2
2024-01-04T12:43:21.310Z,252.2
2024-01-04T12:44:21.963Z,187.4
2024-01-04T12:45:19.887Z,256.1
2024-01-04T12:46:19.563Z,205.7
2024-01-04T12:47:18.735Z,115.1
2024-01-04T12:48:20.835Z,87.2
2024-01-04T12:49:21.576Z,132.5
2024-01-04T12:50:23.247Z,80.4
2024-01-04T12:51:19.043Z,62.5
2024-01-04T12:52:18.704Z,39.9
2024-01-04T12:53:18.579Z,44.8
2024-01-04T12:54:18.620Z,33.5
2024-01-04T12:55:19.780Z,21.9
2024-01-04T12:56:19.590Z,26.2
2024-01-04T12:57:20.582Z,19.8
2024-01-04T12:58:19.104Z,16.1
2024-01-04T12:59:18.793Z,14.8
2024-01-04T13:00:18.653Z,19.1
2024-01-04T13:01:19.119Z,20.1
2024-01-04T13:02:18.588Z,15.0
2024-01-04T13:03:18.678Z,23.2
2024-01-04T13:04:18.677Z,17.4
2024-01-04T13:05:18.524Z,19.2
2024-01-04T13:06:18.816Z,30.2
2024-01-04T13:07:18.688Z,13.5
2024-01-04T13:08:18.560Z,12.5
2024-01-04T13:09:19.431Z,18.5
2024-01-04T13:10:19.203Z,13.3
2024-01-04T13:11:19.366Z,13.4
2024-01-04T13:12:18.843Z,14.6
2024-01-04T13:13:18.966Z,16.3
2024-01-04T13:14:18.742Z,22.1
2024-01-04T13:15:18.586Z,11.0
2024-01-04T13:16:18.661Z,10.6
2024-01-04T13:17:18.526Z,11.1
2024-01-04T13:18:18.751Z,13.5
2024-01-04T13:19:18.591Z,14.5
2024-01-04T13:20:18.482Z,13.2
2024-01-04T13:21:21.755Z,11.8
2024-01-04T13:22:20.016Z,117.0
2024-01-04T13:23:20.580Z,171.3
2024-01-04T13:24:19.586Z,284.6
2024-01-04T13:25:19.408Z,196.5
2024-01-04T13:26:20.041Z,158.6
2024-01-04T13:27:19.468Z,107.9
2024-01-04T13:28:19.715Z,163.5
2024-01-04T13:29:19.556Z,238.9